Мюнхен, Германия

24 11, 2014 01:52 CET (GMT +0100)
Riem | Change Station
CLOSE
Current Station
Личная Метеорологическая Станция
Location: Muenchen, BAYERN
Высота над уровнем моря: 1739 ft
Ближайшие Погодные Станции
Важное Cообщение: Fog Im Nebel gebietsweise Sichtweiten unter 150 m .

В.н.у.м. 1739 ft 48.13 °N, 11.71 °E | Updated 19 seconds ago

Fog
Туман
35.2 °F
Ощущается Как 35 °F
С
0.0
Ветер переменчевый Ветер от Восточный
Gusts 0.7 миль/ч

Сегодня
Высокий -- | Низкий -- °F
--% Вероятн. осадков
Вчера
Высокий -- | Низкий -- °F
Precip. -- дюймов
7:32 AM 4:26 PM
Растущая луна, 3% visible
Давление 30.18 дюймов
Видимость 0.4 милиь
Облачность Пасмурно 100 ft
Температура с учетом ветра 35 °F
Точка Росы 35 °F
Влажность воздуха 98%
Дождь 0.00 дюймов
Глубина снега Нет в наличии.
УФ 0 из 12
Пыльца Нет в наличии.
Качество воздуха Нет в наличии.
Flu Activity Нет в наличии.
METAR EDDM 240020Z 11007KT 0600 R08L/1900N R08R/1400VP2000N FG OVC001 03/03 Q1022 NOSIG

More Conditions Fewer Conditions

Давление 30.18 дюймов
Видимость 0.4 милиь
Облачность Пасмурно 100 ft
Температура с учетом ветра 35 °F
Точка Росы 35 °F
Влажность воздуха 98%
Дождь 0.00 дюймов
Глубина снега Нет в наличии.
УФ 0 из 12
Пыльца Нет в наличии.
Качество воздуха Нет в наличии.
Flu Activity Нет в наличии.
METAR EDDM 240020Z 11007KT 0600 R08L/1900N R08R/1400VP2000N FG OVC001 03/03 Q1022 NOSIG

More Conditions Fewer Conditions

10-Day Weather Forecast

Almanac

Астрономические явления

Nov. 24, 2014 Восход Закат
Настоящее время
Гражданские сумерки
Навигационные сумерки
Астрономические сумерки
Луна
Длительность светового времени
Продолжительность Дня
Tomorrow will be .
, % of the Moon is Illuminated

Сегодняшние Экстремальные Показания

Country Highs Country Lows

Community

WunderPhotos

Upload Photos

1,773,226 фотографии загружены!

WunderBlogs® & News

Nearby

Качество воздуха

  Качество воздуха Индекс AQ Загрязнитель
Not available.

Глубина Снега

Station Depth Высота над уровнем моря

Сейсмическая активность

Город Distance Mag. Time & Date
Minimum magnitude displayed is 2.5.

Температура Прибрежных Вод

Место Температура

Ближайшие Погодные Станции